createdAt,value
2018-03-19T00:01:31.323Z,6.65
2018-03-19T00:03:59.576Z,5.95
2018-03-19T00:06:27.838Z,6.32
2018-03-19T00:08:56.862Z,7.72
2018-03-19T00:11:25.137Z,6.50
2018-03-19T00:13:53.391Z,7.37
2018-03-19T00:16:21.663Z,7.10
2018-03-19T00:18:50.679Z,6.43
2018-03-19T00:21:18.944Z,7.40
2018-03-19T00:23:47.196Z,8.02
2018-03-19T00:26:16.223Z,8.13
2018-03-19T00:28:44.474Z,7.72
2018-03-19T00:31:13.519Z,8.15
2018-03-19T00:33:41.775Z,7.40
2018-03-19T00:36:10.023Z,7.45
2018-03-19T00:38:39.056Z,7.55
2018-03-19T00:41:07.299Z,7.57
2018-03-19T00:43:35.557Z,7.43
2018-03-19T00:46:04.569Z,7.65
2018-03-19T00:48:32.831Z,7.25
2018-03-19T00:51:01.840Z,6.53
2018-03-19T00:53:30.099Z,7.50
2018-03-19T00:55:59.111Z,6.20
2018-03-19T00:58:27.380Z,6.62
2018-03-19T01:00:55.626Z,6.15
2018-03-19T01:03:23.878Z,7.25
2018-03-19T01:05:52.142Z,6.65
2018-03-19T01:08:20.395Z,7.07
2018-03-19T01:10:48.666Z,6.93
2018-03-19T01:13:16.919Z,7.50
2018-03-19T01:15:45.939Z,7.60
2018-03-19T01:18:14.196Z,6.70
2018-03-19T01:20:43.221Z,7.28
2018-03-19T01:23:11.482Z,7.30
2018-03-19T01:25:39.734Z,6.50
2018-03-19T01:28:08.759Z,6.37
2018-03-19T01:30:37.022Z,7.18
2018-03-19T01:33:05.278Z,7.68
2018-03-19T01:35:34.301Z,8.10
2018-03-19T01:38:02.551Z,7.10
2018-03-19T01:40:30.808Z,6.93
2018-03-19T01:42:59.070Z,7.15
2018-03-19T01:45:27.327Z,7.00
2018-03-19T01:47:55.587Z,7.32
2018-03-19T01:50:23.840Z,6.57
2018-03-19T01:52:52.111Z,6.68
2018-03-19T01:55:20.362Z,6.40
2018-03-19T01:57:49.386Z,7.25
2018-03-19T02:00:17.647Z,7.30
2018-03-19T02:02:46.669Z,6.97
2018-03-19T02:05:14.933Z,7.55
2018-03-19T02:07:43.195Z,7.62
2018-03-19T02:10:12.232Z,6.68
2018-03-19T02:12:40.487Z,6.43
2018-03-19T02:15:08.746Z,6.93
2018-03-19T02:17:37.006Z,7.37
2018-03-19T02:20:06.024Z,8.05
2018-03-19T02:22:34.285Z,7.75
2018-03-19T02:25:02.542Z,7.15
2018-03-19T02:27:31.571Z,8.05
2018-03-19T02:29:59.824Z,7.32
2018-03-19T02:32:28.842Z,6.80
2018-03-19T02:34:57.100Z,7.70
2018-03-19T02:37:25.351Z,7.18
2018-03-19T02:39:53.607Z,7.18
2018-03-19T02:42:21.863Z,6.68
2018-03-19T02:44:50.121Z,7.62
2018-03-19T02:47:18.376Z,6.60
2018-03-19T02:49:47.402Z,7.00
2018-03-19T02:52:15.651Z,7.60
2018-03-19T02:54:43.914Z,8.48
2018-03-19T02:57:12.930Z,7.30
2018-03-19T02:59:41.200Z,7.50
2018-03-19T03:02:09.451Z,7.45
2018-03-19T03:04:38.470Z,7.57
2018-03-19T03:07:06.731Z,7.68
2018-03-19T03:09:35.747Z,8.30
2018-03-19T03:12:04.008Z,6.90
2018-03-19T03:14:32.259Z,7.10
2018-03-19T03:17:01.286Z,7.60
2018-03-19T03:19:29.535Z,6.82
2018-03-19T03:21:58.557Z,6.82
2018-03-19T03:24:26.819Z,7.28
2018-03-19T03:26:55.843Z,7.07
2018-03-19T03:29:24.094Z,7.05
2018-03-19T03:31:52.351Z,7.37
2018-03-19T03:34:21.459Z,7.82
2018-03-19T03:36:49.708Z,6.60
2018-03-19T03:39:17.972Z,6.50
2018-03-19T03:41:46.220Z,7.03
2018-03-19T03:44:14.470Z,7.95
2018-03-19T03:46:42.728Z,7.40
2018-03-19T03:49:11.841Z,6.70
2018-03-19T03:51:40.102Z,7.95
2018-03-19T03:54:09.132Z,8.50
2018-03-19T03:56:37.387Z,7.53
2018-03-19T03:59:05.643Z,8.48
2018-03-19T04:01:34.664Z,7.30
2018-03-19T04:04:02.931Z,8.05
2018-03-19T04:06:31.186Z,8.32
2018-03-19T04:09:00.210Z,7.70
2018-03-19T04:11:28.460Z,7.90
2018-03-19T04:13:56.718Z,8.13
2018-03-19T04:16:25.735Z,7.60
2018-03-19T04:18:53.995Z,7.20
2018-03-19T04:21:23.011Z,7.30
2018-03-19T04:23:51.274Z,7.20
2018-03-19T04:26:20.294Z,8.45
2018-03-19T04:28:48.558Z,7.97
2018-03-19T04:31:16.818Z,6.82
2018-03-19T04:33:45.842Z,7.28
2018-03-19T04:36:14.094Z,7.75
2018-03-19T04:38:42.358Z,7.22
2018-03-19T04:41:11.387Z,7.65
2018-03-19T04:43:39.646Z,7.18
2018-03-19T04:46:07.902Z,7.45
2018-03-19T04:48:36.948Z,7.50
2018-03-19T04:51:05.214Z,6.97
2018-03-19T04:53:33.467Z,7.32
2018-03-19T04:56:01.733Z,8.00
2018-03-19T04:58:29.979Z,8.05
2018-03-19T05:00:58.244Z,7.30
2018-03-19T05:03:26.490Z,7.75
2018-03-19T05:05:54.746Z,8.20
2018-03-19T05:08:23.004Z,8.82
2018-03-19T05:10:52.035Z,8.82
2018-03-19T05:13:20.291Z,7.15
2018-03-19T05:15:48.554Z,7.18
2018-03-19T05:18:16.813Z,8.30
2018-03-19T05:20:45.835Z,8.50
2018-03-19T05:23:14.085Z,7.78
2018-03-19T05:25:43.104Z,7.95
2018-03-19T05:28:11.362Z,7.75
2018-03-19T05:30:39.624Z,9.38
2018-03-19T05:33:08.668Z,8.65
2018-03-19T05:35:36.905Z,7.30
2018-03-19T05:38:06.015Z,7.72
2018-03-19T05:40:34.271Z,7.93
2018-03-19T05:43:03.287Z,8.43
2018-03-19T05:45:31.543Z,7.65
2018-03-19T05:48:00.569Z,8.57
2018-03-19T05:50:28.931Z,7.60
2018-03-19T05:52:57.195Z,8.70
2018-03-19T05:55:25.445Z,6.22
2018-03-19T05:57:53.707Z,7.18
2018-03-19T06:00:21.967Z,8.52
2018-03-19T06:02:50.231Z,7.53
2018-03-19T06:05:18.492Z,8.02
2018-03-19T06:07:46.761Z,7.43
2018-03-19T06:10:15.011Z,7.90
2018-03-19T06:12:44.023Z,9.13
2018-03-19T06:15:12.292Z,7.75
2018-03-19T06:17:41.315Z,7.30
2018-03-19T06:20:09.570Z,7.87
2018-03-19T06:22:37.825Z,7.90
2018-03-19T06:25:06.847Z,8.05
2018-03-19T06:27:35.101Z,7.97
2018-03-19T06:30:03.392Z,8.40
2018-03-19T06:32:31.666Z,8.63
2018-03-19T06:34:59.934Z,8.75
2018-03-19T06:37:28.196Z,9.70
2018-03-19T06:39:57.238Z,8.57
2018-03-19T06:42:25.493Z,7.78
2018-03-19T06:44:53.742Z,7.15
2018-03-19T06:47:22.773Z,7.97
2018-03-19T06:49:51.060Z,8.02
2018-03-19T06:52:19.290Z,8.95
2018-03-19T06:54:48.326Z,7.87
2018-03-19T06:57:16.586Z,8.75
2018-03-19T06:59:44.854Z,8.60
2018-03-19T07:02:13.115Z,9.27
2018-03-19T07:04:42.135Z,9.10
2018-03-19T07:07:10.397Z,8.25
2018-03-19T07:09:38.650Z,8.57
2018-03-19T07:12:07.675Z,8.80
2018-03-19T07:14:35.931Z,8.10
2018-03-19T07:17:04.207Z,7.53
2018-03-19T07:19:32.463Z,7.12
2018-03-19T07:22:01.484Z,7.50
2018-03-19T07:24:29.751Z,7.70
2018-03-19T07:26:58.011Z,8.07
2018-03-19T07:29:27.047Z,7.07
2018-03-19T07:31:55.299Z,7.93
2018-03-19T07:34:23.572Z,8.15
2018-03-19T07:36:51.837Z,8.75
2018-03-19T07:39:20.859Z,6.90
2018-03-19T07:41:49.124Z,7.68
2018-03-19T07:44:17.385Z,8.88
2018-03-19T07:46:46.410Z,9.38
2018-03-19T07:49:14.677Z,7.45
2018-03-19T07:51:42.936Z,9.35
2018-03-19T07:54:11.203Z,9.07
2018-03-19T07:56:40.224Z,8.48
2018-03-19T07:59:08.487Z,7.95
2018-03-19T08:01:36.751Z,9.30
2018-03-19T08:04:05.018Z,8.13
2018-03-19T08:06:34.048Z,8.35
2018-03-19T08:09:02.308Z,7.70
2018-03-19T08:11:30.562Z,9.70
2018-03-19T08:13:59.604Z,9.10
2018-03-19T08:16:27.859Z,7.93
2018-03-19T08:18:56.140Z,9.18
2018-03-19T08:21:24.408Z,8.82
2018-03-19T08:23:52.679Z,10.18
2018-03-19T08:26:20.947Z,11.05
2018-03-19T08:28:49.213Z,10.45
2018-03-19T08:31:18.249Z,9.00
2018-03-19T08:33:46.511Z,8.55
2018-03-19T08:36:14.788Z,8.60
2018-03-19T08:38:43.054Z,9.70
2018-03-19T08:41:11.322Z,8.35
2018-03-19T08:43:39.591Z,8.63
2018-03-19T08:46:07.869Z,8.82
2018-03-19T08:48:36.134Z,10.85
2018-03-19T08:51:05.178Z,10.40
2018-03-19T08:53:33.448Z,9.00
2018-03-19T08:56:01.722Z,10.13
2018-03-19T08:58:30.014Z,8.95
2018-03-19T09:00:58.251Z,8.57
2018-03-19T09:03:26.519Z,10.35
2018-03-19T09:05:54.793Z,9.13
2018-03-19T09:08:23.059Z,10.98
2018-03-19T09:10:52.106Z,9.45
2018-03-19T09:13:20.375Z,9.73
2018-03-19T09:15:48.645Z,9.25
2018-03-19T09:18:16.922Z,9.63
2018-03-19T09:20:45.190Z,10.18
2018-03-19T09:23:13.455Z,9.43
2018-03-19T09:25:41.724Z,9.95
2018-03-19T09:28:09.987Z,9.00
2018-03-19T09:30:39.011Z,10.40
2018-03-19T09:33:07.274Z,9.27
2018-03-19T09:35:35.544Z,9.30
2018-03-19T09:38:03.814Z,10.83
2018-03-19T09:40:32.069Z,9.03
2018-03-19T09:43:01.090Z,8.93
2018-03-19T09:45:29.351Z,10.80
2018-03-19T09:47:58.384Z,10.90
2018-03-19T09:50:26.637Z,10.03
2018-03-19T09:52:54.919Z,10.40
2018-03-19T09:55:23.182Z,10.80
2018-03-19T09:57:51.442Z,10.13
2018-03-19T10:00:20.471Z,10.10
2018-03-19T10:02:48.730Z,11.33
2018-03-19T10:05:16.994Z,10.03
2018-03-19T10:07:46.007Z,10.00
2018-03-19T10:10:14.289Z,11.50
2018-03-19T10:12:42.547Z,10.20
2018-03-19T10:15:10.806Z,10.37
2018-03-19T10:17:39.842Z,10.98
2018-03-19T10:20:08.099Z,10.43
2018-03-19T10:22:36.362Z,10.18
2018-03-19T10:25:04.637Z,11.23
2018-03-19T10:27:32.945Z,12.20
2018-03-19T10:30:01.175Z,9.40
2018-03-19T10:32:30.203Z,9.88
2018-03-19T10:34:58.464Z,10.05
2018-03-19T10:37:26.723Z,10.02
2018-03-19T10:39:55.756Z,8.98
2018-03-19T10:42:24.021Z,10.55
2018-03-19T10:44:52.275Z,10.82
2018-03-19T10:47:20.541Z,11.10
2018-03-19T10:49:49.598Z,12.82
2018-03-19T10:52:17.846Z,10.52
2018-03-19T10:54:46.094Z,10.73
2018-03-19T10:57:14.355Z,8.32
2018-03-19T10:59:43.380Z,10.57
2018-03-19T11:05:24.131Z,10.80
2018-03-19T11:07:58.780Z,10.73
2018-03-19T11:10:27.795Z,10.37
2018-03-19T11:12:56.047Z,11.07
2018-03-19T11:15:25.071Z,10.50
2018-03-19T11:17:53.322Z,11.87
2018-03-19T11:20:21.573Z,10.03
2018-03-19T11:22:49.817Z,12.00
2018-03-19T11:25:18.064Z,11.10
2018-03-19T11:27:46.315Z,9.17
2018-03-19T11:30:15.326Z,13.00
2018-03-19T11:32:43.571Z,12.60
2018-03-19T11:35:12.595Z,13.80
2018-03-19T11:37:40.842Z,11.77
2018-03-19T11:40:09.086Z,11.20
2018-03-19T11:42:37.336Z,11.97
2018-03-19T11:45:05.598Z,14.23
2018-03-19T11:47:33.839Z,12.27
2018-03-19T11:50:02.108Z,12.60
2018-03-19T11:52:30.355Z,13.83
2018-03-19T11:54:58.606Z,12.47
2018-03-19T11:57:26.862Z,12.17
2018-03-19T11:59:55.891Z,15.77
2018-03-19T12:02:24.149Z,13.47
2018-03-19T12:04:52.410Z,22.20
2018-03-19T12:07:20.662Z,13.10
2018-03-19T12:09:49.685Z,12.93
2018-03-19T12:12:17.949Z,12.13
2018-03-19T12:14:46.954Z,13.33
2018-03-19T12:17:15.213Z,12.57
2018-03-19T12:19:44.227Z,13.03
2018-03-19T12:22:12.479Z,14.03
2018-03-19T12:24:41.491Z,12.97
2018-03-19T12:27:09.748Z,11.90
2018-03-19T12:29:38.759Z,12.17
2018-03-19T12:32:07.012Z,12.93
2018-03-19T12:34:36.023Z,12.03
2018-03-19T12:37:04.276Z,10.80
2018-03-19T12:39:32.513Z,12.70
2018-03-19T12:42:00.771Z,12.07
2018-03-19T12:44:29.022Z,11.70
2018-03-19T12:46:57.275Z,13.20
2018-03-19T12:49:25.594Z,12.03
2018-03-19T12:51:53.784Z,12.47
2018-03-19T12:54:22.027Z,12.83
2018-03-19T12:56:50.278Z,11.70
2018-03-19T12:59:19.315Z,12.13
2018-03-19T13:01:47.564Z,14.07
2018-03-19T13:04:16.578Z,12.17
2018-03-19T13:06:44.823Z,13.23
2018-03-19T13:09:13.848Z,12.77
2018-03-19T13:11:42.106Z,13.30
2018-03-19T13:14:10.358Z,13.70
2018-03-19T13:16:38.614Z,11.20
2018-03-19T13:19:06.870Z,11.37
2018-03-19T13:21:35.128Z,14.07
2018-03-19T13:24:03.366Z,12.90
2018-03-19T13:26:32.392Z,14.23
2018-03-19T13:29:00.642Z,11.50
2018-03-19T13:31:29.659Z,14.10
2018-03-19T13:33:57.906Z,13.10
2018-03-19T13:36:26.932Z,11.83
2018-03-19T13:38:55.179Z,13.90
2018-03-19T13:41:24.199Z,13.13
2018-03-19T13:43:52.446Z,11.70
2018-03-19T13:46:21.503Z,11.13
2018-03-19T13:48:49.779Z,11.90
2018-03-19T13:51:18.041Z,12.00
2018-03-19T13:53:46.307Z,11.53
2018-03-19T13:56:14.547Z,13.37
2018-03-19T13:58:43.564Z,13.27
2018-03-19T14:01:11.804Z,13.13
2018-03-19T14:03:40.823Z,11.80
2018-03-19T14:06:09.073Z,12.10
2018-03-19T14:08:38.086Z,12.67
2018-03-19T14:11:06.330Z,14.03
2018-03-19T14:13:34.591Z,11.60
2018-03-19T14:16:02.830Z,12.97
2018-03-19T14:18:31.085Z,11.90
2018-03-19T14:20:59.342Z,12.30
2018-03-19T14:23:28.355Z,10.67
2018-03-19T14:25:56.609Z,11.80
2018-03-19T14:28:25.626Z,12.47
2018-03-19T14:30:53.878Z,12.13
2018-03-19T14:33:22.898Z,13.40
2018-03-19T14:35:51.185Z,13.10
2018-03-19T14:38:19.404Z,12.17
2018-03-19T14:40:47.660Z,11.33
2018-03-19T14:43:15.912Z,12.30
2018-03-19T14:45:44.151Z,11.50
2018-03-19T14:48:13.178Z,12.03
2018-03-19T14:50:41.667Z,11.93
2018-03-19T14:53:09.712Z,12.30
2018-03-19T14:55:38.727Z,11.63
2018-03-19T14:58:06.977Z,11.90
2018-03-19T15:00:35.999Z,11.97
2018-03-19T15:03:04.243Z,11.60
2018-03-19T15:05:33.264Z,12.53
2018-03-19T15:08:01.505Z,12.33
2018-03-19T15:10:30.526Z,11.17
2018-03-19T15:12:58.779Z,11.77
2018-03-19T15:15:27.802Z,12.47
2018-03-19T15:17:56.056Z,11.50
2018-03-19T15:20:24.314Z,10.57
2018-03-19T15:22:53.330Z,11.53
2018-03-19T15:25:21.583Z,10.67
2018-03-19T15:27:50.598Z,12.77
2018-03-19T15:30:18.866Z,10.90
2018-03-19T15:32:47.118Z,12.23
2018-03-19T15:35:16.138Z,10.30
2018-03-19T15:37:44.390Z,10.47
2018-03-19T15:40:13.407Z,10.97
2018-03-19T15:42:41.662Z,11.80
2018-03-19T15:45:10.686Z,10.77
2018-03-19T15:47:38.939Z,10.53
2018-03-19T15:50:07.971Z,11.10
2018-03-19T15:52:36.236Z,12.10
2018-03-19T15:55:04.477Z,11.27
2018-03-19T15:57:33.514Z,11.00
2018-03-19T16:00:01.768Z,11.00
2018-03-19T16:02:30.025Z,11.97
2018-03-19T16:04:59.047Z,12.13
2018-03-19T16:07:27.304Z,10.77
2018-03-19T16:09:55.555Z,11.40
2018-03-19T16:12:24.582Z,11.65
2018-03-19T16:14:52.835Z,11.53
2018-03-19T16:17:21.867Z,11.43
2018-03-19T16:19:50.123Z,12.23
2018-03-19T16:22:18.382Z,9.88
2018-03-19T16:24:47.405Z,12.80
2018-03-19T16:27:15.720Z,12.30
2018-03-19T16:29:43.919Z,13.73
2018-03-19T16:32:12.955Z,12.55
2018-03-19T16:34:41.212Z,11.57
2018-03-19T16:37:09.474Z,11.45
2018-03-19T16:39:37.742Z,11.93
2018-03-19T16:42:06.764Z,11.45
2018-03-19T16:44:35.022Z,11.20
2018-03-19T16:47:03.275Z,11.12
2018-03-19T16:49:32.303Z,10.70
2018-03-19T16:52:00.551Z,10.20
2018-03-19T16:54:29.577Z,12.30
2018-03-19T16:56:57.833Z,11.43
2018-03-19T16:59:26.862Z,11.85
2018-03-19T17:01:55.118Z,10.93
2018-03-19T17:04:23.398Z,11.00
2018-03-19T17:06:51.655Z,10.57
2018-03-19T17:09:19.923Z,13.13
2018-03-19T17:11:48.937Z,12.00
2018-03-19T17:14:17.201Z,11.82
2018-03-19T17:16:45.459Z,10.52
2018-03-19T17:19:14.499Z,10.50
2018-03-19T17:21:42.759Z,10.60
2018-03-19T17:24:11.018Z,11.52
2018-03-19T17:26:40.055Z,11.60
2018-03-19T17:29:08.320Z,10.90
2018-03-19T17:31:36.591Z,10.48
2018-03-19T17:34:04.856Z,12.00
2018-03-19T17:36:33.120Z,12.55
2018-03-19T17:39:01.411Z,10.75
2018-03-19T17:41:29.686Z,10.77
2018-03-19T17:43:57.940Z,10.38
2018-03-19T17:46:26.977Z,11.15
2018-03-19T17:48:55.231Z,10.02
2018-03-19T17:51:23.508Z,10.18
2018-03-19T17:53:51.772Z,11.02
2018-03-19T17:56:20.042Z,14.05
2018-03-19T17:58:48.312Z,11.05
2018-03-19T18:01:17.339Z,12.57
2018-03-19T18:03:45.595Z,13.13
2018-03-19T18:06:13.866Z,12.95
2018-03-19T18:08:42.124Z,11.07
2018-03-19T18:11:11.160Z,11.82
2018-03-19T18:13:39.422Z,14.30
2018-03-19T18:16:07.688Z,12.90
2018-03-19T18:18:35.946Z,12.15
2018-03-19T18:21:04.978Z,13.30
2018-03-19T18:23:33.240Z,13.70
2018-03-19T18:26:01.524Z,13.50
2018-03-19T18:28:29.786Z,14.15
2018-03-19T18:33:55.026Z,13.02
2018-03-19T18:36:23.291Z,13.60
2018-03-19T18:38:51.554Z,12.43
2018-03-19T18:41:19.820Z,14.18
2018-03-19T18:43:48.847Z,14.75
2018-03-19T18:46:17.107Z,15.30
2018-03-19T18:48:45.379Z,13.15
2018-03-19T18:51:13.634Z,12.68
2018-03-19T18:53:42.669Z,13.50
2018-03-19T18:56:10.930Z,12.55
2018-03-19T18:58:39.195Z,13.30
2018-03-19T19:01:07.450Z,12.13
2018-03-19T19:03:35.711Z,13.70
2018-03-19T19:06:03.967Z,15.75
2018-03-19T19:08:32.235Z,14.20
2018-03-19T19:11:00.495Z,15.77
2018-03-19T19:13:28.773Z,13.95
2018-03-19T19:15:57.026Z,13.48
2018-03-19T19:18:25.292Z,14.45
2018-03-19T19:20:54.319Z,16.30
2018-03-19T19:23:22.574Z,15.20
2018-03-19T19:25:50.834Z,13.13
2018-03-19T19:28:19.867Z,14.40
2018-03-19T19:30:48.118Z,14.18
2018-03-19T19:33:16.382Z,15.75
2018-03-19T19:35:45.400Z,14.70
2018-03-19T19:38:13.670Z,13.75
2018-03-19T19:40:41.927Z,14.20
2018-03-19T19:43:10.947Z,14.10
2018-03-19T19:45:39.217Z,14.05
2018-03-19T19:48:07.474Z,14.27
2018-03-19T19:50:36.500Z,13.90
2018-03-19T19:53:04.756Z,14.40
2018-03-19T19:55:33.018Z,13.68
2018-03-19T19:58:02.043Z,15.35
2018-03-19T20:00:30.305Z,14.82
2018-03-19T20:02:58.558Z,15.20
2018-03-19T20:05:27.592Z,13.52
2018-03-19T20:07:55.847Z,13.65
2018-03-19T20:10:24.117Z,13.40
2018-03-19T20:12:53.131Z,14.68
2018-03-19T20:15:21.400Z,14.15
2018-03-19T20:17:49.646Z,12.95
2018-03-19T20:20:18.670Z,14.30
2018-03-19T20:22:46.927Z,14.82
2018-03-19T20:25:15.946Z,15.15
2018-03-19T20:27:44.220Z,15.82
2018-03-19T20:30:12.471Z,12.73
2018-03-19T20:32:41.503Z,14.10
2018-03-19T20:35:09.763Z,14.38
2018-03-19T20:37:38.026Z,14.45
2018-03-19T20:40:06.300Z,12.32
2018-03-19T20:42:35.310Z,14.18
2018-03-19T20:45:03.579Z,13.32
2018-03-19T20:47:31.841Z,14.25
2018-03-19T20:50:00.099Z,13.20
2018-03-19T20:52:28.371Z,13.52
2018-03-19T20:54:57.400Z,12.80
2018-03-19T20:57:25.656Z,14.52
2018-03-19T20:59:54.675Z,12.25
2018-03-19T21:02:22.941Z,12.77
2018-03-19T21:04:51.204Z,12.85
2018-03-19T21:07:19.490Z,13.90
2018-03-19T21:09:47.749Z,12.60
2018-03-19T21:12:16.766Z,14.48
2018-03-19T21:14:45.034Z,14.60
2018-03-19T21:17:13.287Z,12.57
2018-03-19T21:19:42.306Z,11.70
2018-03-19T21:22:10.574Z,10.68
2018-03-19T21:24:38.830Z,13.25
2018-03-19T21:27:07.856Z,12.70
2018-03-19T21:29:36.119Z,13.82
2018-03-19T21:32:04.379Z,12.65
2018-03-19T21:34:33.411Z,12.88
2018-03-19T21:37:01.675Z,13.13
2018-03-19T21:39:29.944Z,12.95
2018-03-19T21:41:58.197Z,13.25
2018-03-19T21:44:27.227Z,13.95
2018-03-19T21:46:55.482Z,12.32
2018-03-19T21:49:25.126Z,13.35
2018-03-19T21:51:53.391Z,12.77
2018-03-19T21:54:21.660Z,12.60
2018-03-19T21:56:49.910Z,13.62
2018-03-19T21:59:18.197Z,13.07
2018-03-19T22:01:46.456Z,11.82
2018-03-19T22:04:15.489Z,16.12
2018-03-19T22:06:43.753Z,12.30
2018-03-19T22:09:12.019Z,15.38
2018-03-19T22:11:40.275Z,12.88
2018-03-19T22:14:09.304Z,13.52
2018-03-19T22:16:37.584Z,14.48
2018-03-19T22:19:05.836Z,13.35
2018-03-19T22:21:34.109Z,14.48
2018-03-19T22:24:02.360Z,14.52
2018-03-19T22:26:31.406Z,13.15
2018-03-19T22:28:59.658Z,14.50
2018-03-19T22:31:27.930Z,14.15
2018-03-19T22:33:56.194Z,13.52
2018-03-19T22:36:25.213Z,13.70
2018-03-19T22:38:53.470Z,12.37
2018-03-19T22:41:24.736Z,13.82
2018-03-19T22:43:53.018Z,14.13
2018-03-19T22:46:21.286Z,14.20
2018-03-19T22:48:49.541Z,12.90
2018-03-19T22:51:18.566Z,12.63
2018-03-19T22:53:46.823Z,11.57
2018-03-19T22:56:15.094Z,12.45
2018-03-19T22:58:43.341Z,12.05
2018-03-19T23:01:12.375Z,12.88
2018-03-19T23:03:40.631Z,14.82
2018-03-19T23:06:08.894Z,13.57
2018-03-19T23:08:37.954Z,13.68
2018-03-19T23:11:06.182Z,15.00
2018-03-19T23:13:35.146Z,13.65
2018-03-19T23:16:03.434Z,14.30
2018-03-19T23:18:32.450Z,14.13
2018-03-19T23:21:00.705Z,13.90
2018-03-19T23:23:28.967Z,14.80
2018-03-19T23:25:58.292Z,12.85
2018-03-19T23:28:26.570Z,14.10
2018-03-19T23:30:55.115Z,14.98
2018-03-19T23:33:23.380Z,14.98
2018-03-19T23:35:51.634Z,14.07
2018-03-19T23:38:19.922Z,16.00
2018-03-19T23:40:48.373Z,14.52
2018-03-19T23:43:16.643Z,17.23
2018-03-19T23:45:44.895Z,17.65
2018-03-19T23:48:13.923Z,13.82
2018-03-19T23:50:42.177Z,16.35
2018-03-19T23:53:10.452Z,15.25
2018-03-19T23:55:38.712Z,14.20
2018-03-19T23:58:07.735Z,15.70
